Terminal Aerodrome Forecast
Issued by NWS Sioux Falls, SD

Home | Current Version | Previous Version | Text Only | Print | Product List | Glossary On
Versions: 1 2 3 4 5 6 7 8 9 10 11 12 13 14 15 16 17 18
211
FTUS43 KFSD 131729
TAFHON
TAF
KHON 131729Z 1318/1418 15016G25KT P6SM OVC030
      TEMPO 1323/1401 2SM -SN OVC020
     FM140100 15019G28KT 1SM -SN BLSN OVC015
     FM140900 16012G19KT 2SM -SN OVC015
     FM141300 18008KT 4SM -SN OVC015
     FM141500 23006KT P6SM OVC015=

USA.gov is the U.S. government's official web portal to all federal, state and local government web resources and services.